Time;durP1;ratioP1;P1;durP2;ratioP2;P2;SDS_P1;SDS_P2;PMS_P1;PMS_P2;Temp;Humidity;BMP_temperature;BMP_pressure;BME280_temperature;BME280_humidity;BME280_pressure;Samples;Min_cycle;Max_cycle;Signal;HPM_P1;HPM_P2
2023/09/26 00:02:57;;;;;;;15.40;10.07;;;;;;;14.19;79.98;101069.50;31225142;28;103815;-64
2023/09/26 00:17:58;;;;;;;14.70;10.13;;;;;;;14.13;80.27;101070.19;31223328;28;96722;-73
2023/09/26 00:32:58;;;;;;;16.48;9.27;;;;;;;14.07;80.98;101064.72;31223467;28;101703;-77
2023/09/26 00:47:59;;;;;;;13.10;9.70;;;;;;;14.00;80.76;101076.09;31220731;28;113591;-66
2023/09/26 01:02:59;;;;;;;13.35;9.27;;;;;;;13.93;80.96;101061.72;31219513;27;97966;-67
2023/09/26 01:18:00;;;;;;;16.27;10.07;;;;;;;13.85;81.44;101059.88;31217884;28;97159;-75
2023/09/26 01:33:02;;;;;;;13.70;9.88;;;;;;;13.78;81.60;101041.97;31216382;28;97233;-71
2023/09/26 01:48:05;;;;;;;15.37;8.77;;;;;;;13.70;81.79;101038.31;31215302;28;96735;-75
2023/09/26 02:03:05;;;;;;;;;;;;;;;13.64;81.84;101035.47;31213998;27;98670;-75
2023/09/26 02:18:06;;;;;;;13.85;9.40;;;;;;;13.54;82.07;101028.50;31214057;28;96949;-70
2023/09/26 02:33:06;;;;;;;12.40;9.40;;;;;;;13.49;82.05;101027.31;31210183;28;97376;-69
2023/09/26 02:48:06;;;;;;;13.43;9.70;;;;;;;13.45;82.40;101025.97;31209378;28;110518;-75
2023/09/26 03:03:07;;;;;;;19.27;10.80;;;;;;;13.40;82.69;101021.13;31206700;28;107352;-75
2023/09/26 03:18:07;;;;;;;14.82;10.18;;;;;;;13.36;82.54;101027.81;31210846;27;96735;-69
2023/09/26 03:33:08;;;;;;;13.73;9.77;;;;;;;13.26;82.92;101027.13;31226016;28;104009;-64
2023/09/26 03:48:08;;;;;;;14.05;10.38;;;;;;;13.18;83.01;101027.97;31226256;27;96787;-68
2023/09/26 04:03:08;;;;;;;21.63;11.57;;;;;;;13.28;83.35;101020.59;31223875;28;108971;-72
2023/09/26 04:18:09;;;;;;;14.82;9.43;;;;;;;13.27;83.31;101016.28;31219579;28;111184;-78
2023/09/26 04:33:09;;;;;;;20.33;10.13;;;;;;;13.26;83.41;101027.97;31219152;27;97129;-68
2023/09/26 04:48:09;;;;;;;17.05;9.90;;;;;;;13.31;83.92;101038.16;31218446;28;99496;-64
2023/09/26 05:03:10;;;;;;;17.27;9.63;;;;;;;13.44;83.64;101038.53;31214968;28;100832;-65
2023/09/26 05:18:11;;;;;;;16.60;10.40;;;;;;;13.62;83.63;101034.84;31214551;28;97262;-63
2023/09/26 05:33:11;;;;;;;15.00;9.13;;;;;;;13.91;83.42;101028.06;31213557;28;97111;-64
2023/09/26 05:48:11;;;;;;;18.92;9.70;;;;;;;14.28;83.36;101040.00;31211913;27;111903;-67
2023/09/26 06:03:11;;;;;;;14.73;9.80;;;;;;;14.36;82.88;101048.00;31209934;28;96810;-67
2023/09/26 06:18:12;;;;;;;24.20;10.85;;;;;;;14.86;82.08;101036.03;31209668;28;96820;-70
2023/09/26 06:33:12;;;;;;;18.40;12.02;;;;;;;15.29;82.26;101045.47;31208898;28;102041;-67
2023/09/26 06:48:12;;;;;;;18.05;13.00;;;;;;;15.71;81.07;101050.28;31204568;27;97468;-67
2023/09/26 07:03:13;;;;;;;20.83;13.90;;;;;;;16.13;81.33;101055.22;31202720;28;96632;-63
2023/09/26 07:18:13;;;;;;;21.85;14.30;;;;;;;16.90;80.61;101048.56;31201733;28;98152;-64
2023/09/26 07:33:14;;;;;;;20.48;14.63;;;;;;;17.49;79.75;101058.19;31203980;28;97183;-70
2023/09/26 07:48:14;;;;;;;24.52;15.35;;;;;;;17.50;79.05;101065.25;31200013;28;97043;-69
2023/09/26 08:03:15;;;;;;;25.33;14.73;;;;;;;17.82;79.06;101068.38;31202448;27;102441;-75
2023/09/26 08:18:15;;;;;;;25.35;16.10;;;;;;;17.84;78.31;101063.66;31219563;28;96722;-75
2023/09/26 08:33:15;;;;;;;26.33;16.98;;;;;;;17.93;78.21;101062.50;31216703;28;111782;-71
2023/09/26 08:48:16;;;;;;;29.73;17.02;;;;;;;18.12;77.94;101067.38;31217283;28;97426;-72
2023/09/26 09:03:17;;;;;;;30.70;17.20;;;;;;;18.30;77.45;101069.53;31216677;28;97382;-66
2023/09/26 09:18:30;;;;;;;29.50;17.75;;;;;;;18.54;77.04;101060.94;31216823;27;96877;-71
2023/09/26 09:33:33;;;;;;;25.27;16.40;;;;;;;18.44;76.74;101060.50;31211967;28;97713;-69
2023/09/26 09:48:46;;;;;;;23.53;16.63;;;;;;;18.77;76.67;101067.88;31208964;27;97395;-64
2023/09/26 10:03:52;;;;;;;20.80;14.93;;;;;;;19.41;76.02;101047.63;31207160;28;96770;-70
2023/09/26 10:18:53;;;;;;;23.20;15.07;;;;;;;19.84;74.26;101043.66;31208824;28;97186;-69
2023/09/26 10:33:54;;;;;;;25.77;15.93;;;;;;;20.42;72.60;101036.63;31206875;28;97572;-75
2023/09/26 10:48:56;;;;;;;22.10;15.03;;;;;;;21.01;72.18;101017.56;31207352;27;96742;-64
2023/09/26 11:03:57;;;;;;;23.07;14.80;;;;;;;23.45;67.71;101025.13;31206725;28;97340;-70
2023/09/26 11:18:57;;;;;;;20.80;15.18;;;;;;;23.95;64.21;101019.22;31203941;28;97329;-72
2023/09/26 11:33:57;;;;;;;21.55;14.10;;;;;;;30.65;58.65;101007.09;31183203;28;109608;-69
2023/09/26 11:48:58;;;;;;;14.75;12.40;;;;;;;40.80;37.87;100991.53;31220028;27;97058;-77
2023/09/26 12:04:04;;;;;;;15.32;12.80;;;;;;;45.25;25.05;100976.59;31221538;28;105231;-69
2023/09/26 12:19:04;;;;;;;10.87;9.60;;;;;;;49.22;19.33;100962.25;31222890;28;97186;-67
2023/09/26 12:34:04;;;;;;;11.75;10.30;;;;;;;52.50;15.92;100941.88;31225198;28;97866;-64
2023/09/26 12:49:05;;;;;;;10.30;8.75;;;;;;;51.73;15.36;100925.72;31230812;27;109118;-72
2023/09/26 13:04:06;;;;;;;9.07;8.18;;;;;;;52.66;14.06;100899.22;31219702;28;100871;-72
2023/09/26 13:19:06;;;;;;;8.50;7.60;;;;;;;50.62;15.46;100881.16;31216508;28;96704;-76
2023/09/26 13:34:06;;;;;;;11.48;8.25;;;;;;;50.27;15.08;100869.16;31215137;28;97134;-73
2023/09/26 13:49:08;;;;;;;9.55;7.90;;;;;;;44.44;18.20;100847.81;31213098;28;103049;-78
2023/09/26 14:04:08;;;;;;;10.63;9.30;;;;;;;36.03;26.96;100842.69;31210564;27;97372;-70
2023/09/26 14:19:08;;;;;;;12.35;9.70;;;;;;;32.04;32.30;100824.72;31209661;28;97183;-70
2023/09/26 14:34:09;;;;;;;11.55;8.98;;;;;;;30.16;35.58;100816.41;31208615;28;97673;-71
2023/09/26 14:49:10;;;;;;;13.05;9.85;;;;;;;28.30;39.28;100811.56;31205758;27;97006;-71
2023/09/26 15:04:10;;;;;;;11.93;9.73;;;;;;;27.36;41.09;100814.38;31206027;28;97487;-79
2023/09/26 15:19:10;;;;;;;13.73;9.90;;;;;;;25.95;44.68;100799.94;31258490;27;110119;-69
2023/09/26 15:34:13;;;;;;;15.68;9.63;;;;;;;24.76;47.49;100794.97;31226870;28;97144;-75
2023/09/26 15:49:13;;;;;;;12.83;9.73;;;;;;;23.79;50.01;100792.22;31228540;27;97140;-64
2023/09/26 16:04:13;;;;;;;16.40;10.43;;;;;;;23.07;52.51;100795.38;31225108;28;97210;-65
2023/09/26 16:19:14;;;;;;;;;;;;;;;22.33;54.93;100806.69;31202834;28;97561;-68
2023/09/26 16:34:14;;;;;;;14.13;9.63;;;;;;;21.63;56.92;100801.63;31217712;27;97221;-73
2023/09/26 16:49:15;;;;;;;15.10;9.97;;;;;;;20.98;58.92;100806.75;31215574;27;97263;-73
2023/09/26 17:04:16;;;;;;;19.23;11.10;;;;;;;20.48;60.89;100800.31;31216560;28;97214;-63
2023/09/26 17:19:17;;;;;;;21.47;12.17;;;;;;;20.03;62.47;100808.56;31215370;28;97386;-78
2023/09/26 17:34:18;;;;;;;18.20;11.70;;;;;;;19.67;64.37;100799.16;31213562;28;97290;-79
2023/09/26 17:49:18;;;;;;;19.05;12.43;;;;;;;19.33;65.49;100799.31;31212802;27;97566;-77
2023/09/26 18:04:19;;;;;;;20.57;13.20;;;;;;;19.04;66.97;100814.13;31211865;28;97438;-75
2023/09/26 18:19:20;;;;;;;26.80;14.57;;;;;;;18.83;68.00;100813.31;31208011;28;108572;-74
2023/09/26 18:34:20;;;;;;;23.20;13.93;;;;;;;18.60;69.02;100811.88;31208474;28;97910;-74
2023/09/26 18:49:20;;;;;;;22.38;14.45;;;;;;;18.40;69.90;100821.84;31207783;27;97274;-70
2023/09/26 19:04:21;;;;;;;25.60;13.20;;;;;;;18.19;70.64;100815.63;31206937;28;96829;-65
2023/09/26 19:19:21;;;;;;;25.23;13.68;;;;;;;17.96;71.31;100817.81;31207073;28;97175;-67
2023/09/26 19:34:21;;;;;;;20.65;13.70;;;;;;;17.77;72.13;100814.88;31186892;28;96803;-67
2023/09/26 19:49:22;;;;;;;22.85;14.98;;;;;;;17.68;72.86;100813.38;31185468;27;96793;-72
2023/09/26 20:04:22;;;;;;;23.42;14.25;;;;;;;17.57;73.65;100809.41;31215861;27;104188;-67
2023/09/26 20:19:22;;;;;;;20.88;14.38;;;;;;;17.47;74.29;100799.00;31223734;28;97403;-74
2023/09/26 20:34:23;;;;;;;20.27;14.80;;;;;;;17.35;74.86;100795.22;31221486;28;97185;-66
2023/09/26 20:49:24;;;;;;;23.47;15.27;;;;;;;17.21;75.45;100807.78;31218473;27;97552;-69
2023/09/26 21:04:24;;;;;;;24.95;14.38;;;;;;;17.07;76.18;100806.84;31218533;28;97098;-73
2023/09/26 21:19:24;;;;;;;25.42;15.77;;;;;;;16.97;76.65;100815.28;31217124;27;106008;-77
2023/09/26 21:34:25;;;;;;;25.08;16.30;;;;;;;16.89;77.38;100810.06;31216775;28;97482;-67
2023/09/26 21:49:25;;;;;;;26.85;15.90;;;;;;;16.82;78.04;100807.28;31215688;28;96756;-70
2023/09/26 22:04:26;;;;;;;28.02;17.38;;;;;;;16.80;78.52;100819.28;31216316;28;97241;-79
2023/09/26 22:19:27;;;;;;;29.63;17.23;;;;;;;16.68;78.66;100819.81;31212393;27;97489;-73
2023/09/26 22:34:27;;;;;;;31.60;18.40;;;;;;;16.59;79.37;100818.28;31211153;28;97073;-68
2023/09/26 22:49:28;;;;;;;30.55;18.45;;;;;;;16.43;79.94;100803.28;31211051;27;106323;-72
2023/09/26 23:04:30;;;;;;;37.30;19.17;;;;;;;16.31;80.23;100815.59;31210073;28;97344;-75
2023/09/26 23:19:30;;;;;;;33.03;19.80;;;;;;;16.18;80.47;100822.50;31208641;28;97059;-81
2023/09/26 23:34:30;;;;;;;38.85;20.60;;;;;;;16.05;80.97;100833.13;31211194;27;106006;-76
2023/09/26 23:49:32;;;;;;;31.73;19.13;;;;;;;15.98;81.20;100832.19;31227645;27;97393;-67
